Time,TemperatureF,DewpointF,PressureIn,WindDirection,WindDirectionDegrees,WindSpeedMPH,WindSpeedGustMPH,Humidity,HourlyPrecipIn,Conditions,Clouds,dailyrainin,SoftwareType,DateUTC
2013-12-05 00:11:00,66.2,65.9,29.70,South,180,1.1,-999.0,99,-99.99,,,0.00,Acu-Link.com,2013-12-05 06:11:00,
2013-12-05 00:26:00,65.8,65.5,29.69,SSW,202,0.0,-999.0,99,-99.99,,,0.00,Acu-Link.com,2013-12-05 06:26:00,
2013-12-05 00:41:00,66.2,65.9,29.69,SW,225,1.7,-999.0,99,-99.99,,,0.00,Acu-Link.com,2013-12-05 06:41:00,
2013-12-05 00:56:00,66.0,65.7,29.69,South,180,3.7,-999.0,99,-99.99,,,0.00,Acu-Link.com,2013-12-05 06:56:00,
2013-12-05 01:11:00,66.6,66.3,29.69,SSE,157,6.3,-999.0,99,-99.99,,,0.00,Acu-Link.com,2013-12-05 07:11:00,
2013-12-05 01:26:00,66.7,66.4,29.69,West,270,3.2,-999.0,99,-99.99,,,0.00,Acu-Link.com,2013-12-05 07:26:00,
2013-12-05 01:41:00,66.7,66.4,29.69,SSE,157,4.2,-999.0,99,-99.99,,,0.00,Acu-Link.com,2013-12-05 07:41:00,
2013-12-05 01:56:00,66.2,65.9,29.68,SSW,202,1.1,-999.0,99,-99.99,,,0.00,Acu-Link.com,2013-12-05 07:56:00,
2013-12-05 02:11:00,66.0,65.7,29.68,South,180,2.7,-999.0,99,-99.99,,,0.00,Acu-Link.com,2013-12-05 08:11:00,
2013-12-05 02:27:00,65.5,65.2,29.69,North,0,0.0,-999.0,99,-99.99,,,0.00,Acu-Link.com,2013-12-05 08:27:00,
2013-12-05 02:42:00,65.3,65.0,29.70,North,0,0.0,-999.0,99,-99.99,,,0.00,Acu-Link.com,2013-12-05 08:42:00,
2013-12-05 02:57:00,65.7,65.4,29.69,West,270,0.0,-999.0,99,-99.99,,,0.00,Acu-Link.com,2013-12-05 08:57:00,
2013-12-05 03:18:00,65.7,65.4,29.69,SW,225,3.2,-999.0,99,-99.99,,,0.00,Acu-Link.com,2013-12-05 09:18:00,
2013-12-05 03:36:00,66.0,65.7,29.68,North,0,0.0,-999.0,99,-99.99,,,0.00,Acu-Link.com,2013-12-05 09:36:00,
2013-12-05 03:58:00,66.0,65.7,29.68,South,180,1.1,-999.0,99,-99.99,,,0.00,Acu-Link.com,2013-12-05 09:58:00,
2013-12-05 04:20:00,66.9,66.6,29.69,SSW,202,3.2,-999.0,99,-99.99,,,0.00,Acu-Link.com,2013-12-05 10:20:00,
2013-12-05 04:36:00,67.1,66.8,29.69,WSW,247,0.0,-999.0,99,-99.99,,,0.00,Acu-Link.com,2013-12-05 10:36:00,
2013-12-05 04:55:00,67.1,66.8,29.70,SSE,157,3.2,-999.0,99,-99.99,,,0.00,Acu-Link.com,2013-12-05 10:55:00,
2013-12-05 05:11:00,67.5,67.2,29.70,South,180,2.7,-999.0,99,-99.99,,,0.00,Acu-Link.com,2013-12-05 11:11:00,
2013-12-05 05:26:00,67.3,67.0,29.71,SSE,157,2.7,-999.0,99,-99.99,,,0.00,Acu-Link.com,2013-12-05 11:26:00,
2013-12-05 05:41:00,67.3,67.0,29.71,SW,225,2.2,-999.0,99,-99.99,,,0.00,Acu-Link.com,2013-12-05 11:41:00,
2013-12-05 05:56:00,67.6,67.3,29.72,SW,225,2.2,-999.0,99,-99.99,,,0.00,Acu-Link.com,2013-12-05 11:56:00,
2013-12-05 06:11:00,67.6,67.3,29.72,SSE,157,4.2,-999.0,99,-99.99,,,0.00,Acu-Link.com,2013-12-05 12:11:00,
2013-12-05 06:26:00,67.8,67.5,29.72,South,180,3.2,-999.0,99,-99.99,,,0.00,Acu-Link.com,2013-12-05 12:26:00,
2013-12-05 06:42:00,67.5,67.2,29.73,SSW,202,6.3,-999.0,99,-99.99,,,0.00,Acu-Link.com,2013-12-05 12:42:00,
2013-12-05 06:57:00,67.5,67.2,29.73,SSE,157,2.7,-999.0,99,-99.99,,,0.00,Acu-Link.com,2013-12-05 12:57:00,
2013-12-05 07:12:00,67.8,67.5,29.73,ENE,67,1.7,-999.0,99,-99.99,,,0.00,Acu-Link.com,2013-12-05 13:12:00,
2013-12-05 07:27:00,68.2,67.9,29.74,SSW,202,2.2,-999.0,99,-99.99,,,0.00,Acu-Link.com,2013-12-05 13:27:00,
2013-12-05 07:42:00,68.5,68.2,29.74,South,180,5.8,-999.0,99,-99.99,,,0.00,Acu-Link.com,2013-12-05 13:42:00,
2013-12-05 07:57:00,68.9,68.6,29.74,South,180,4.7,-999.0,99,-99.99,,,0.00,Acu-Link.com,2013-12-05 13:57:00,
2013-12-05 08:12:00,69.4,69.1,29.74,SSE,157,7.3,-999.0,99,-99.99,,,0.00,Acu-Link.com,2013-12-05 14:12:00,
2013-12-05 08:27:00,69.6,69.3,29.75,SSE,157,8.3,-999.0,99,-99.99,,,0.00,Acu-Link.com,2013-12-05 14:27:00,
2013-12-05 08:42:00,70.0,69.7,29.75,South,180,7.8,-999.0,99,-99.99,,,0.00,Acu-Link.com,2013-12-05 14:42:00,
2013-12-05 08:58:00,70.2,69.9,29.75,SSW,202,5.8,-999.0,99,-99.99,,,0.00,Acu-Link.com,2013-12-05 14:58:00,
2013-12-05 09:13:00,70.5,70.2,29.75,SSW,202,2.2,-999.0,99,-99.99,,,0.00,Acu-Link.com,2013-12-05 15:13:00,
2013-12-05 09:28:00,70.7,70.4,29.75,SSE,157,7.8,-999.0,99,-99.99,,,0.00,Acu-Link.com,2013-12-05 15:28:00,
2013-12-05 09:43:00,70.3,70.0,29.75,SSW,202,5.3,-999.0,99,-99.99,,,0.00,Acu-Link.com,2013-12-05 15:43:00,
2013-12-05 09:58:00,70.5,70.2,29.75,South,180,5.3,-999.0,99,-99.99,,,0.00,Acu-Link.com,2013-12-05 15:58:00,
2013-12-05 10:13:00,70.9,70.6,29.75,South,180,5.3,-999.0,99,-99.99,,,0.00,Acu-Link.com,2013-12-05 16:13:00,
2013-12-05 10:28:00,71.6,71.3,29.74,ENE,67,2.7,-999.0,99,-99.99,,,0.00,Acu-Link.com,2013-12-05 16:28:00,
2013-12-05 10:43:00,71.1,70.8,29.74,SSW,202,5.8,-999.0,99,-99.99,,,0.00,Acu-Link.com,2013-12-05 16:43:00,
2013-12-05 10:58:00,71.2,70.9,29.73,SSW,202,2.7,-999.0,99,-99.99,,,0.00,Acu-Link.com,2013-12-05 16:58:00,
2013-12-05 11:14:00,72.5,72.2,29.72,NE,45,0.0,-999.0,99,-99.99,,,0.00,Acu-Link.com,2013-12-05 17:14:00,
2013-12-05 11:29:00,73.0,72.7,29.71,SE,135,5.8,-999.0,99,-99.99,,,0.00,Acu-Link.com,2013-12-05 17:29:00,
2013-12-05 11:44:00,73.9,73.6,29.69,SE,135,3.7,-999.0,99,-99.99,,,0.00,Acu-Link.com,2013-12-05 17:44:00,
2013-12-05 11:59:00,73.9,73.6,29.68,ESE,112,5.8,-999.0,99,-99.99,,,0.00,Acu-Link.com,2013-12-05 17:59:00,
2013-12-05 12:14:00,74.3,74.0,29.68,SW,225,3.7,-999.0,99,-99.99,,,0.00,Acu-Link.com,2013-12-05 18:14:00,
2013-12-05 12:29:00,75.0,74.7,29.67,SSE,157,2.7,-999.0,99,-99.99,,,0.00,Acu-Link.com,2013-12-05 18:29:00,
2013-12-05 12:44:00,74.7,74.4,29.67,ESE,112,2.2,-999.0,99,-99.99,,,0.00,Acu-Link.com,2013-12-05 18:44:00,
2013-12-05 12:59:00,74.7,74.4,29.66,South,180,1.1,-999.0,99,-99.99,,,0.00,Acu-Link.com,2013-12-05 18:59:00,
2013-12-05 13:14:00,74.5,74.2,29.65,SW,225,2.2,-999.0,99,-99.99,,,0.00,Acu-Link.com,2013-12-05 19:14:00,
2013-12-05 13:30:00,74.3,74.0,29.65,SSE,157,4.2,-999.0,99,-99.99,,,0.00,Acu-Link.com,2013-12-05 19:30:00,
2013-12-05 13:45:00,73.4,73.1,29.64,SW,225,1.7,-999.0,99,-99.99,,,0.00,Acu-Link.com,2013-12-05 19:45:00,
2013-12-05 14:00:00,71.6,71.3,29.66,South,180,2.7,-999.0,99,-99.99,,,0.01,Acu-Link.com,2013-12-05 20:00:00,
2013-12-05 14:15:00,70.0,69.7,29.65,South,180,4.7,-999.0,99,-99.99,,,0.27,Acu-Link.com,2013-12-05 20:15:00,
2013-12-05 14:30:00,69.8,69.5,29.65,SSE,157,4.7,-999.0,99,-99.99,,,0.31,Acu-Link.com,2013-12-05 20:30:00,
2013-12-05 14:45:00,69.8,69.5,29.65,SSE,157,3.2,-999.0,99,-99.99,,,0.32,Acu-Link.com,2013-12-05 20:45:00,
2013-12-05 15:00:00,69.6,69.3,29.65,SE,135,0.0,-999.0,99,-99.99,,,0.32,Acu-Link.com,2013-12-05 21:00:00,
2013-12-05 15:15:00,69.8,69.5,29.65,SW,225,4.2,-999.0,99,-99.99,,,0.34,Acu-Link.com,2013-12-05 21:15:00,
2013-12-05 15:30:00,69.8,69.5,29.65,SW,225,3.7,-999.0,99,-99.99,,,0.34,Acu-Link.com,2013-12-05 21:30:00,
2013-12-05 15:46:00,70.0,69.7,29.64,WSW,247,1.7,-999.0,99,-99.99,,,0.34,Acu-Link.com,2013-12-05 21:46:00,
2013-12-05 16:01:00,69.8,69.5,29.65,SSW,202,1.1,-999.0,99,-99.99,,,0.34,Acu-Link.com,2013-12-05 22:01:00,
2013-12-05 16:16:00,69.6,69.3,29.65,SSE,157,2.2,-999.0,99,-99.99,,,0.34,Acu-Link.com,2013-12-05 22:16:00,
2013-12-05 16:31:00,69.4,69.1,29.66,SSE,157,5.3,-999.0,99,-99.99,,,0.34,Acu-Link.com,2013-12-05 22:31:00,
2013-12-05 16:46:00,69.4,69.1,29.65,South,180,2.7,-999.0,99,-99.99,,,0.34,Acu-Link.com,2013-12-05 22:46:00,
2013-12-05 17:01:00,69.1,68.8,29.65,WSW,247,0.0,-999.0,99,-99.99,,,0.34,Acu-Link.com,2013-12-05 23:01:00,
2013-12-05 17:16:00,68.7,68.4,29.67,West,270,0.0,-999.0,99,-99.99,,,0.34,Acu-Link.com,2013-12-05 23:16:00,
2013-12-05 17:31:00,68.7,68.4,29.67,SSW,202,1.7,-999.0,99,-99.99,,,0.34,Acu-Link.com,2013-12-05 23:31:00,
2013-12-05 17:46:00,68.5,68.2,29.67,SW,225,2.2,-999.0,99,-99.99,,,0.34,Acu-Link.com,2013-12-05 23:46:00,
2013-12-05 18:02:00,69.1,68.8,29.67,South,180,4.7,-999.0,99,-99.99,,,0.34,Acu-Link.com,2013-12-06 00:02:00,
2013-12-05 18:17:00,69.4,69.1,29.66,West,270,1.1,-999.0,99,-99.99,,,0.34,Acu-Link.com,2013-12-06 00:17:00,
2013-12-05 18:32:00,69.4,69.1,29.66,West,270,2.2,-999.0,99,-99.99,,,0.34,Acu-Link.com,2013-12-06 00:32:00,
2013-12-05 18:47:00,69.4,69.1,29.65,SSE,157,5.3,-999.0,99,-99.99,,,0.34,Acu-Link.com,2013-12-06 00:47:00,
2013-12-05 19:02:00,69.3,69.0,29.65,SW,225,2.7,-999.0,99,-99.99,,,0.34,Acu-Link.com,2013-12-06 01:02:00,
2013-12-05 19:17:00,69.1,68.8,29.64,SW,225,1.7,-999.0,99,-99.99,,,0.34,Acu-Link.com,2013-12-06 01:17:00,
2013-12-05 19:32:00,69.4,69.1,29.64,SSE,157,12.5,-999.0,99,-99.99,,,0.34,Acu-Link.com,2013-12-06 01:32:00,
2013-12-05 19:47:00,70.0,69.7,29.65,SSE,157,4.7,-999.0,99,-99.99,,,0.34,Acu-Link.com,2013-12-06 01:47:00,
2013-12-05 20:02:00,70.3,70.0,29.65,South,180,3.7,-999.0,99,-99.99,,,0.34,Acu-Link.com,2013-12-06 02:02:00,
2013-12-05 20:18:00,70.5,70.2,29.65,SW,225,5.3,-999.0,99,-99.99,,,0.34,Acu-Link.com,2013-12-06 02:18:00,
2013-12-05 20:33:00,70.9,70.6,29.65,West,270,4.2,-999.0,99,-99.99,,,0.34,Acu-Link.com,2013-12-06 02:33:00,
2013-12-05 20:48:00,70.9,70.6,29.65,SW,225,3.2,-999.0,99,-99.99,,,0.34,Acu-Link.com,2013-12-06 02:48:00,
2013-12-05 21:03:00,71.2,70.9,29.64,SSW,202,4.7,-999.0,99,-99.99,,,0.34,Acu-Link.com,2013-12-06 03:03:00,
2013-12-05 21:18:00,71.1,70.8,29.64,South,180,5.3,-999.0,99,-99.99,,,0.34,Acu-Link.com,2013-12-06 03:18:00,
2013-12-05 21:33:00,70.9,70.6,29.65,SSE,157,6.8,-999.0,99,-99.99,,,0.34,Acu-Link.com,2013-12-06 03:33:00,
2013-12-05 21:48:00,70.9,70.6,29.66,SW,225,3.2,-999.0,99,-99.99,,,0.34,Acu-Link.com,2013-12-06 03:48:00,
2013-12-05 22:03:00,70.7,70.4,29.67,SSW,202,6.8,-999.0,99,-99.99,,,0.34,Acu-Link.com,2013-12-06 04:03:00,
2013-12-05 22:18:00,70.5,70.2,29.67,SW,225,2.7,-999.0,99,-99.99,,,0.34,Acu-Link.com,2013-12-06 04:18:00,
2013-12-05 22:34:00,70.3,70.0,29.66,South,180,2.2,-999.0,99,-99.99,,,0.34,Acu-Link.com,2013-12-06 04:34:00,
2013-12-05 22:49:00,70.3,70.0,29.67,South,180,2.2,-999.0,99,-99.99,,,0.34,Acu-Link.com,2013-12-06 04:49:00,
2013-12-05 23:04:00,71.1,70.8,29.67,South,180,2.2,-999.0,99,-99.99,,,0.34,Acu-Link.com,2013-12-06 05:04:00,
2013-12-05 23:19:00,71.1,70.8,29.67,SW,225,4.7,-999.0,99,-99.99,,,0.34,Acu-Link.com,2013-12-06 05:19:00,
2013-12-05 23:34:00,71.1,70.8,29.67,South,180,3.2,-999.0,99,-99.99,,,0.34,Acu-Link.com,2013-12-06 05:34:00,
2013-12-05 23:49:00,71.2,70.9,29.66,South,180,3.7,-999.0,99,-99.99,,,0.34,Acu-Link.com,2013-12-06 05:49:00,